Terminal Aerodrome Forecast
Issued by NWS

Home | Current Version | Previous Version | Text Only | Print | Product List | Glossary On
Versions: 1 2 3 4 5 6 7 8 9 10 11 12 13 14 15 16 17 18 19 20 21
679
FTUS43 KILX 121738
TAFBMI
TAF
KBMI 121738Z 1218/1318 31015G23KT 4SM -SN OVC014
      TEMPO 1218/1220 1 1/2SM -SN BR BKN009
     FM122000 31017G25KT P6SM BKN015
      TEMPO 1221/1301 SCT015 BKN025
     FM130100 32015G20KT P6SM SCT020
     FM130600 33012KT P6SM SCT250
     FM131200 33008KT P6SM SCT250=

USA.gov is the U.S. government's official web portal to all federal, state and local government web resources and services.